createdAt,value
2023-02-20T00:00:39.311Z,67.30
2023-02-20T00:03:07.411Z,67.70
2023-02-20T00:05:34.703Z,67.90
2023-02-20T00:08:01.439Z,67.80
2023-02-20T00:10:28.553Z,67.90
2023-02-20T00:12:55.296Z,68.00
2023-02-20T00:15:22.671Z,69.50
2023-02-20T00:17:49.769Z,69.00
2023-02-20T00:20:22.462Z,68.20
2023-02-20T00:22:50.392Z,68.40
2023-02-20T00:25:19.713Z,69.70
2023-02-20T00:27:46.693Z,68.50
2023-02-20T00:30:19.635Z,68.60
2023-02-20T00:32:52.378Z,68.30
2023-02-20T00:35:20.436Z,68.70
2023-02-20T00:37:48.263Z,68.60
2023-02-20T00:40:17.944Z,68.10
2023-02-20T00:42:45.336Z,68.10
2023-02-20T00:45:14.060Z,69.80
2023-02-20T00:47:40.828Z,68.80
2023-02-20T00:50:09.268Z,69.20
2023-02-20T00:52:39.494Z,68.50
2023-02-20T00:55:06.981Z,69.20
2023-02-20T01:00:00.928Z,68.70
2023-02-20T01:02:28.129Z,69.40
2023-02-20T01:07:23.550Z,68.80
2023-02-20T01:09:50.262Z,69.50
2023-02-20T01:12:17.586Z,69.50
2023-02-20T01:14:44.316Z,69.60
2023-02-20T01:17:13.074Z,69.70
2023-02-20T01:22:08.823Z,69.20
2023-02-20T01:24:35.627Z,70.00
2023-02-20T01:27:02.453Z,70.00
2023-02-20T01:29:29.159Z,69.70
2023-02-20T01:31:56.011Z,70.00
2023-02-20T01:36:53.970Z,69.50
2023-02-20T01:39:24.633Z,70.10
2023-02-20T01:42:05.249Z,69.90
2023-02-20T01:44:36.548Z,69.70
2023-02-20T01:47:21.531Z,69.80
2023-02-20T01:50:09.203Z,70.30
2023-02-20T01:52:39.017Z,70.10
2023-02-20T01:55:10.721Z,70.10
2023-02-20T01:57:42.731Z,70.10
2023-02-20T02:00:19.436Z,70.10
2023-02-20T02:02:54.148Z,70.20
2023-02-20T02:05:24.394Z,69.60
2023-02-20T02:07:51.849Z,70.20
2023-02-20T02:10:26.740Z,70.20
2023-02-20T02:12:55.004Z,70.30
2023-02-20T02:15:24.357Z,69.60
2023-02-20T02:18:34.458Z,70.30
2023-02-20T02:21:34.379Z,70.00
2023-02-20T02:24:22.675Z,70.50
2023-02-20T02:27:21.139Z,69.60
2023-02-20T02:30:30.405Z,70.70
2023-02-20T02:33:35.418Z,69.90
2023-02-20T02:36:21.362Z,70.80
2023-02-20T02:39:10.721Z,70.60
2023-02-20T02:42:12.895Z,70.30
2023-02-20T02:45:09.836Z,70.30
2023-02-20T02:47:55.329Z,70.30
2023-02-20T02:50:38.842Z,70.90
2023-02-20T02:53:09.608Z,70.90
2023-02-20T02:55:37.236Z,70.80
2023-02-20T02:58:05.516Z,70.40
2023-02-20T03:00:45.867Z,71.10
2023-02-20T03:03:23.151Z,71.50
2023-02-20T03:06:17.793Z,71.30
2023-02-20T03:08:56.523Z,71.40
2023-02-20T03:11:27.303Z,71.80
2023-02-20T03:14:25.600Z,71.20
2023-02-20T03:17:28.921Z,71.70
2023-02-20T03:20:00.892Z,71.70
2023-02-20T03:22:43.057Z,71.50
2023-02-20T03:25:21.305Z,72.40
2023-02-20T03:27:56.413Z,72.20
2023-02-20T03:30:40.273Z,71.80
2023-02-20T03:34:12.094Z,72.00
2023-02-20T03:37:10.191Z,71.90
2023-02-20T03:40:07.914Z,72.00
2023-02-20T03:43:01.543Z,71.80
2023-02-20T03:45:31.270Z,71.80
2023-02-20T03:48:04.336Z,71.90
2023-02-20T03:52:59.446Z,71.30
2023-02-20T03:55:26.922Z,71.90
2023-02-20T03:57:59.068Z,71.10
2023-02-20T04:00:32.579Z,71.70
2023-02-20T04:03:10.000Z,71.50
2023-02-20T04:05:42.480Z,71.60
2023-02-20T04:08:15.875Z,72.20
2023-02-20T04:10:55.521Z,72.20
2023-02-20T04:13:24.108Z,72.20
2023-02-20T04:15:51.855Z,72.20
2023-02-20T04:18:22.180Z,72.10
2023-02-20T04:20:54.024Z,72.10
2023-02-20T04:23:24.954Z,72.20
2023-02-20T04:26:21.307Z,72.00
2023-02-20T04:28:48.589Z,71.90
2023-02-20T04:31:18.349Z,72.10
2023-02-20T04:33:45.224Z,71.60
2023-02-20T04:36:12.435Z,72.30
2023-02-20T04:38:39.494Z,72.50
2023-02-20T04:43:33.358Z,71.80
2023-02-20T04:46:00.604Z,71.80
2023-02-20T04:48:27.631Z,72.30
2023-02-20T04:50:54.593Z,72.60
2023-02-20T04:53:21.337Z,72.60
2023-02-20T04:55:48.613Z,72.50
2023-02-20T04:58:15.801Z,72.50
2023-02-20T05:00:42.518Z,72.40
2023-02-20T05:03:09.488Z,72.60
2023-02-20T05:05:36.222Z,72.70
2023-02-20T05:08:07.398Z,72.70
2023-02-20T05:10:35.973Z,72.20
2023-02-20T05:13:03.359Z,72.00
2023-02-20T05:15:32.276Z,72.70
2023-02-20T05:17:59.164Z,72.80
2023-02-20T05:20:45.830Z,72.70
2023-02-20T05:23:12.937Z,73.00
2023-02-20T05:25:39.681Z,72.70
2023-02-20T05:28:07.720Z,73.00
2023-02-20T05:33:01.695Z,72.50
2023-02-20T05:35:28.403Z,73.10
2023-02-20T05:37:55.171Z,73.20
2023-02-20T05:40:22.037Z,73.30
2023-02-20T05:42:48.798Z,73.10
2023-02-20T05:45:15.874Z,72.40
2023-02-20T05:47:42.619Z,73.30
2023-02-20T05:50:09.481Z,73.40
2023-02-20T05:52:36.227Z,73.50
2023-02-20T05:55:03.000Z,73.60
2023-02-20T05:57:29.734Z,73.50
2023-02-20T05:59:57.048Z,73.00
2023-02-20T06:02:23.768Z,73.50
2023-02-20T06:04:50.665Z,73.70
2023-02-20T06:07:17.514Z,74.90
2023-02-20T06:09:45.188Z,74.00
2023-02-20T06:12:12.620Z,73.10
2023-02-20T06:14:39.717Z,73.90
2023-02-20T06:17:06.448Z,74.00
2023-02-20T06:19:33.168Z,74.00
2023-02-20T06:24:27.540Z,73.60
2023-02-20T06:26:54.356Z,73.30
2023-02-20T06:29:21.441Z,73.90
2023-02-20T06:31:48.609Z,73.90
2023-02-20T06:34:16.443Z,74.20
2023-02-20T06:36:44.126Z,74.50
2023-02-20T06:39:13.604Z,74.80
2023-02-20T06:41:40.843Z,73.90
2023-02-20T06:44:07.723Z,74.30
2023-02-20T06:46:34.527Z,75.10
2023-02-20T06:49:01.310Z,74.80
2023-02-20T06:51:34.425Z,74.50
2023-02-20T06:54:03.585Z,74.90
2023-02-20T06:56:33.918Z,74.80
2023-02-20T07:01:39.256Z,73.90
2023-02-20T07:04:06.979Z,74.60
2023-02-20T07:06:33.700Z,74.70
2023-02-20T07:09:00.429Z,74.20
2023-02-20T07:11:27.255Z,75.00
2023-02-20T07:13:53.976Z,74.60
2023-02-20T07:16:20.814Z,74.70
2023-02-20T07:21:14.804Z,73.70
2023-02-20T07:23:41.756Z,74.30
2023-02-20T07:26:25.769Z,73.90
2023-02-20T07:28:54.810Z,74.60
2023-02-20T07:31:22.117Z,74.10
2023-02-20T07:33:48.838Z,74.50
2023-02-20T07:36:16.888Z,74.50
2023-02-20T07:38:52.528Z,74.30
2023-02-20T07:41:19.318Z,74.20
2023-02-20T07:43:46.020Z,74.20
2023-02-20T07:46:13.135Z,74.00
2023-02-20T07:48:40.138Z,73.10
2023-02-20T07:51:06.995Z,73.60
2023-02-20T07:53:33.758Z,73.40
2023-02-20T07:56:00.533Z,73.20
2023-02-20T07:58:27.290Z,73.10
2023-02-20T08:00:54.306Z,72.90
2023-02-20T08:03:21.119Z,72.70
2023-02-20T08:05:49.842Z,71.90
2023-02-20T08:08:17.088Z,71.90
2023-02-20T08:10:43.836Z,72.40
2023-02-20T08:13:10.712Z,72.20
2023-02-20T08:15:37.707Z,72.20
2023-02-20T08:18:07.817Z,72.10
2023-02-20T08:20:39.531Z,71.90
2023-02-20T08:23:06.700Z,71.80
2023-02-20T08:25:33.452Z,71.70
2023-02-20T08:28:00.193Z,71.50
2023-02-20T08:30:28.912Z,70.60
2023-02-20T08:32:55.919Z,71.30
2023-02-20T08:37:52.826Z,70.60
2023-02-20T08:40:19.792Z,71.20
2023-02-20T08:42:50.545Z,70.90
2023-02-20T08:45:17.306Z,70.80
2023-02-20T08:47:44.069Z,70.00
2023-02-20T08:50:11.319Z,70.60
2023-02-20T08:52:38.074Z,70.50
2023-02-20T08:55:05.109Z,70.40
2023-02-20T08:57:31.850Z,70.40
2023-02-20T08:59:58.603Z,70.30
2023-02-20T09:02:28.658Z,70.00
2023-02-20T09:04:57.566Z,70.00
2023-02-20T09:07:25.255Z,70.00
2023-02-20T09:09:52.292Z,69.40
2023-02-20T09:12:19.463Z,69.90
2023-02-20T09:14:47.014Z,69.80
2023-02-20T09:17:14.153Z,69.60
2023-02-20T09:19:41.044Z,69.70
2023-02-20T09:22:07.865Z,69.60
2023-02-20T09:24:35.574Z,69.10
2023-02-20T09:27:04.963Z,69.20
2023-02-20T09:29:32.008Z,68.40
2023-02-20T09:31:58.868Z,69.20
2023-02-20T09:36:55.406Z,67.80
2023-02-20T09:39:22.304Z,68.80
2023-02-20T09:41:57.801Z,68.50
2023-02-20T09:44:42.072Z,68.10
2023-02-20T09:47:25.868Z,67.30
2023-02-20T09:49:59.784Z,68.30
2023-02-20T09:52:27.187Z,68.40
2023-02-20T09:55:05.451Z,67.30
2023-02-20T09:57:35.564Z,67.70
2023-02-20T10:00:10.786Z,67.80
2023-02-20T10:02:52.131Z,67.40
2023-02-20T10:05:25.613Z,66.10
2023-02-20T10:07:53.292Z,65.70
2023-02-20T10:10:28.097Z,66.60
2023-02-20T10:13:27.736Z,65.20
2023-02-20T10:16:39.406Z,66.20
2023-02-20T10:19:34.898Z,65.60
2023-02-20T10:22:25.901Z,64.60
2023-02-20T10:25:21.356Z,65.20
2023-02-20T10:28:23.413Z,65.20
2023-02-20T10:31:03.011Z,62.90
2023-02-20T10:33:43.348Z,65.00
2023-02-20T10:36:25.642Z,65.10
2023-02-20T10:39:06.314Z,65.30
2023-02-20T10:41:58.075Z,65.30
2023-02-20T10:44:49.870Z,65.50
2023-02-20T10:47:52.961Z,62.60
2023-02-20T10:50:39.598Z,64.70
2023-02-20T10:53:27.036Z,64.80
2023-02-20T10:56:12.479Z,64.90
2023-02-20T10:59:09.177Z,63.90
2023-02-20T11:01:38.558Z,63.60
2023-02-20T11:04:19.671Z,63.40
2023-02-20T11:07:07.052Z,63.70
2023-02-20T11:09:34.217Z,63.70
2023-02-20T11:12:02.309Z,65.00
2023-02-20T11:14:41.304Z,64.80
2023-02-20T11:17:19.485Z,64.80
2023-02-20T11:19:55.471Z,64.40
2023-02-20T11:22:50.125Z,64.20
2023-02-20T11:25:38.557Z,64.10
2023-02-20T11:28:25.987Z,63.50
2023-02-20T11:31:07.406Z,63.80
2023-02-20T11:33:45.498Z,64.20
2023-02-20T11:36:21.509Z,64.40
2023-02-20T11:38:49.170Z,64.40
2023-02-20T11:41:36.822Z,63.60
2023-02-20T11:44:25.284Z,64.30
2023-02-20T11:47:24.749Z,63.70
2023-02-20T11:50:20.915Z,64.80
2023-02-20T11:53:07.958Z,64.60
2023-02-20T11:55:35.301Z,64.10
2023-02-20T11:58:02.841Z,65.00
2023-02-20T12:00:52.447Z,65.10
2023-02-20T12:03:29.617Z,64.80
2023-02-20T12:05:59.372Z,64.60
2023-02-20T12:08:56.216Z,64.80
2023-02-20T12:11:28.037Z,64.80
2023-02-20T12:13:58.744Z,64.80
2023-02-20T12:16:50.387Z,64.20
2023-02-20T12:19:26.598Z,64.90
2023-02-20T12:22:17.164Z,64.40
2023-02-20T12:24:58.937Z,65.30
2023-02-20T12:27:42.178Z,64.80
2023-02-20T12:30:34.785Z,64.90
2023-02-20T12:33:38.981Z,65.60
2023-02-20T12:36:32.880Z,65.60
2023-02-20T12:40:00.600Z,65.60
2023-02-20T12:42:49.711Z,65.70
2023-02-20T12:45:52.339Z,65.50
2023-02-20T12:48:42.471Z,65.00
2023-02-20T12:51:21.928Z,65.10
2023-02-20T12:54:13.000Z,65.90
2023-02-20T12:57:29.441Z,66.00
2023-02-20T13:00:41.146Z,66.00
2023-02-20T13:03:12.918Z,65.50
2023-02-20T13:05:45.381Z,66.20
2023-02-20T13:08:17.683Z,66.30
2023-02-20T13:10:58.120Z,64.80
2023-02-20T13:14:02.297Z,66.60
2023-02-20T13:16:43.963Z,66.80
2023-02-20T13:19:39.595Z,66.90
2023-02-20T13:22:06.782Z,67.30
2023-02-20T13:24:39.882Z,67.40
2023-02-20T13:27:28.952Z,67.10
2023-02-20T13:30:10.637Z,67.40
2023-02-20T13:35:41.694Z,67.20
2023-02-20T13:38:21.967Z,68.80
2023-02-20T13:41:00.458Z,69.60
2023-02-20T13:43:36.254Z,69.60
2023-02-20T13:46:17.609Z,69.50
2023-02-20T13:48:53.103Z,69.40
2023-02-20T13:51:21.511Z,69.10
2023-02-20T13:54:01.263Z,69.80
2023-02-20T13:56:46.640Z,70.10
2023-02-20T13:59:20.581Z,70.30
2023-02-20T14:02:24.082Z,70.40
2023-02-20T14:05:04.477Z,71.10
2023-02-20T14:07:45.111Z,70.70
2023-02-20T14:10:28.501Z,71.00
2023-02-20T14:13:11.390Z,71.40
2023-02-20T14:16:05.987Z,71.50
2023-02-20T14:18:36.681Z,72.40
2023-02-20T14:21:22.864Z,72.80
2023-02-20T14:23:52.224Z,72.20
2023-02-20T14:28:54.865Z,71.20
2023-02-20T14:31:37.567Z,72.20
2023-02-20T14:34:44.053Z,72.10
2023-02-20T14:37:14.993Z,72.40
2023-02-20T14:40:02.725Z,72.30
2023-02-20T14:42:29.632Z,72.30
2023-02-20T14:45:03.635Z,71.40
2023-02-20T14:50:33.523Z,71.50
2023-02-20T14:53:21.233Z,72.80
2023-02-20T14:55:51.002Z,72.30
2023-02-20T14:58:23.250Z,72.20
2023-02-20T15:00:50.345Z,73.10
2023-02-20T15:03:30.951Z,72.20
2023-02-20T15:06:04.368Z,72.20
2023-02-20T15:08:37.762Z,72.10
2023-02-20T15:11:11.735Z,72.00
2023-02-20T15:13:41.970Z,72.00
2023-02-20T15:16:12.104Z,71.90
2023-02-20T15:18:47.012Z,71.40
2023-02-20T15:21:36.871Z,71.60
2023-02-20T15:24:36.501Z,71.60
2023-02-20T15:27:19.321Z,70.90
2023-02-20T15:29:47.582Z,71.50
2023-02-20T15:32:18.615Z,71.40
2023-02-20T15:34:54.572Z,71.40
2023-02-20T15:37:34.295Z,70.80
2023-02-20T15:40:22.340Z,71.30
2023-02-20T15:42:56.009Z,71.30
2023-02-20T15:45:28.290Z,72.60
2023-02-20T15:47:55.650Z,71.00
2023-02-20T15:50:22.927Z,71.00
2023-02-20T15:52:50.869Z,71.00
2023-02-20T15:55:22.978Z,71.00
2023-02-20T15:57:56.512Z,71.00
2023-02-20T16:00:32.808Z,70.40
2023-02-20T16:03:02.111Z,71.10
2023-02-20T16:05:29.407Z,71.00
2023-02-20T16:07:56.318Z,71.00
2023-02-20T16:10:25.517Z,71.00
2023-02-20T16:13:00.849Z,71.10
2023-02-20T16:15:28.612Z,71.20
2023-02-20T16:17:55.955Z,70.80
2023-02-20T16:20:29.049Z,71.20
2023-02-20T16:22:56.065Z,71.30
2023-02-20T16:25:24.692Z,71.30
2023-02-20T16:27:56.875Z,71.60
2023-02-20T16:30:38.069Z,72.10
2023-02-20T16:33:24.110Z,71.40
2023-02-20T16:35:55.213Z,73.10
2023-02-20T16:38:22.119Z,72.50
2023-02-20T16:40:54.553Z,72.00
2023-02-20T16:43:23.306Z,72.70
2023-02-20T16:45:50.896Z,72.60
2023-02-20T16:48:20.253Z,72.80
2023-02-20T16:50:53.542Z,73.40
2023-02-20T16:53:21.193Z,73.50
2023-02-20T16:55:48.864Z,73.50
2023-02-20T16:58:15.973Z,73.50
2023-02-20T17:03:24.740Z,72.90
2023-02-20T17:05:58.377Z,73.90
2023-02-20T17:08:26.779Z,74.30
2023-02-20T17:10:53.663Z,74.10
2023-02-20T17:13:20.435Z,74.10
2023-02-20T17:15:47.713Z,74.30
2023-02-20T17:18:15.342Z,74.30
2023-02-20T17:20:42.195Z,75.60
2023-02-20T17:23:08.939Z,74.80
2023-02-20T17:25:35.849Z,74.60
2023-02-20T17:28:03.580Z,74.60
2023-02-20T17:30:30.371Z,74.00
2023-02-20T17:32:57.194Z,74.10
2023-02-20T17:35:23.947Z,75.20
2023-02-20T17:37:51.556Z,74.80
2023-02-20T17:45:14.881Z,75.60
2023-02-20T17:47:41.891Z,75.40
2023-02-20T17:50:09.003Z,75.60
2023-02-20T17:52:35.706Z,75.40
2023-02-20T17:55:02.474Z,75.20
2023-02-20T17:57:29.404Z,76.20
2023-02-20T18:02:23.396Z,75.50
2023-02-20T18:07:17.650Z,75.40
2023-02-20T18:09:44.627Z,76.30
2023-02-20T18:12:11.525Z,76.10
2023-02-20T18:14:38.226Z,76.30
2023-02-20T18:17:04.980Z,76.60
2023-02-20T18:19:32.338Z,76.80
2023-02-20T18:21:59.403Z,76.40
2023-02-20T18:24:26.469Z,77.90
2023-02-20T18:26:54.519Z,77.20
2023-02-20T18:29:21.945Z,77.70
2023-02-20T18:31:49.725Z,78.10
2023-02-20T18:34:18.748Z,78.00
2023-02-20T18:36:45.495Z,78.40
2023-02-20T18:39:13.889Z,78.40
2023-02-20T18:41:41.379Z,79.70
2023-02-20T18:44:09.194Z,78.70
2023-02-20T18:46:39.749Z,79.80
2023-02-20T18:49:06.859Z,79.50
2023-02-20T18:51:37.734Z,79.60
2023-02-20T18:54:06.339Z,79.30
2023-02-20T18:56:33.737Z,79.60
2023-02-20T18:59:02.453Z,80.00
2023-02-20T19:01:29.463Z,80.70
2023-02-20T19:03:56.550Z,80.60
2023-02-20T19:06:32.945Z,81.60
2023-02-20T19:09:01.417Z,80.70
2023-02-20T19:11:30.006Z,80.60
2023-02-20T19:13:57.013Z,80.70
2023-02-20T19:16:23.952Z,80.90
2023-02-20T19:18:51.233Z,80.90
2023-02-20T19:21:19.203Z,83.10
2023-02-20T19:23:46.699Z,81.40
2023-02-20T19:26:13.905Z,81.40
2023-02-20T19:28:42.197Z,82.60
2023-02-20T19:31:12.215Z,81.60
2023-02-20T19:33:39.143Z,81.90
2023-02-20T19:36:09.866Z,81.50
2023-02-20T19:38:39.264Z,82.10
2023-02-20T19:41:06.540Z,83.00
2023-02-20T19:43:33.482Z,82.10
2023-02-20T19:46:00.394Z,82.40
2023-02-20T19:48:28.381Z,81.50
2023-02-20T19:50:56.102Z,82.60
2023-02-20T19:53:23.488Z,82.80
2023-02-20T19:55:54.256Z,82.60
2023-02-20T19:58:21.464Z,82.30
2023-02-20T20:00:48.236Z,82.10
2023-02-20T20:03:15.070Z,83.10
2023-02-20T20:05:41.815Z,84.20
2023-02-20T20:08:08.586Z,83.10
2023-02-20T20:10:35.444Z,82.50
2023-02-20T20:13:02.562Z,83.10
2023-02-20T20:15:29.542Z,83.20
2023-02-20T20:18:00.325Z,83.10
2023-02-20T20:20:29.411Z,83.10
2023-02-20T20:23:01.670Z,82.90
2023-02-20T20:25:28.887Z,82.90
2023-02-20T20:27:57.690Z,82.70
2023-02-20T20:30:28.091Z,82.70
2023-02-20T20:32:56.652Z,83.20
2023-02-20T20:35:25.880Z,83.10
2023-02-20T20:37:54.253Z,83.30
2023-02-20T20:40:22.867Z,82.70
2023-02-20T20:42:50.265Z,82.70
2023-02-20T20:45:18.172Z,82.60
2023-02-20T20:47:45.565Z,82.50
2023-02-20T20:50:17.100Z,82.50
2023-02-20T20:52:45.852Z,83.30
2023-02-20T20:55:13.401Z,82.50
2023-02-20T20:57:41.056Z,82.70
2023-02-20T21:00:21.631Z,83.00
2023-02-20T21:02:49.049Z,83.10
2023-02-20T21:05:17.635Z,82.50
2023-02-20T21:07:44.433Z,82.40
2023-02-20T21:10:12.295Z,82.60
2023-02-20T21:12:39.960Z,82.80
2023-02-20T21:15:09.345Z,82.90
2023-02-20T21:17:36.719Z,82.90
2023-02-20T21:20:07.163Z,82.60
2023-02-20T21:22:35.616Z,81.90
2023-02-20T21:25:03.470Z,83.10
2023-02-20T21:27:31.213Z,82.70
2023-02-20T21:29:57.960Z,82.20
2023-02-20T21:32:26.568Z,82.30
2023-02-20T21:34:53.568Z,82.30
2023-02-20T21:37:20.324Z,82.10
2023-02-20T21:39:47.133Z,82.20
2023-02-20T21:42:33.138Z,82.30
2023-02-20T21:44:59.881Z,81.80
2023-02-20T21:47:26.651Z,82.10
2023-02-20T21:49:53.955Z,81.30
2023-02-20T21:52:21.390Z,82.30
2023-02-20T21:54:53.531Z,82.00
2023-02-20T21:57:20.936Z,81.80
2023-02-20T21:59:47.610Z,82.10
2023-02-20T22:02:20.946Z,82.10
2023-02-20T22:04:48.363Z,82.20
2023-02-20T22:07:34.842Z,81.50
2023-02-20T22:10:20.398Z,81.70
2023-02-20T22:13:05.815Z,81.90
2023-02-20T22:15:51.422Z,82.00
2023-02-20T22:21:22.802Z,82.20
2023-02-20T22:24:08.231Z,82.20
2023-02-20T22:26:53.703Z,82.40
2023-02-20T22:29:39.294Z,82.30
2023-02-20T22:32:24.751Z,82.00
2023-02-20T22:35:12.238Z,82.30
2023-02-20T22:37:57.948Z,82.70
2023-02-20T22:40:43.533Z,83.00
2023-02-20T22:43:28.832Z,82.60
2023-02-20T22:46:14.537Z,83.50
2023-02-20T22:48:59.688Z,82.90
2023-02-20T22:51:45.904Z,83.90
2023-02-20T22:54:31.603Z,82.60
2023-02-20T22:57:17.292Z,84.20
2023-02-20T23:00:03.927Z,83.50
2023-02-20T23:02:50.654Z,83.00
2023-02-20T23:05:36.115Z,83.40
2023-02-20T23:08:21.687Z,83.50
2023-02-20T23:11:07.154Z,83.40
2023-02-20T23:13:52.636Z,83.70
2023-02-20T23:16:41.146Z,84.50
2023-02-20T23:19:28.976Z,84.60
2023-02-20T23:22:15.247Z,84.30
2023-02-20T23:25:00.784Z,84.10
2023-02-20T23:27:46.642Z,84.90
2023-02-20T23:30:32.809Z,84.30
2023-02-20T23:33:18.522Z,85.60
2023-02-20T23:36:04.072Z,85.30
2023-02-20T23:38:49.430Z,84.90
2023-02-20T23:41:34.902Z,84.90
2023-02-20T23:44:22.805Z,85.00
2023-02-20T23:47:08.309Z,85.40
2023-02-20T23:49:53.695Z,86.10
2023-02-20T23:52:38.874Z,86.10
2023-02-20T23:55:24.384Z,85.50
2023-02-20T23:58:10.134Z,85.60
